Time;durP1;ratioP1;P1;durP2;ratioP2;P2;SDS_P1;SDS_P2;PMS_P1;PMS_P2;Temp;Humidity;BMP_temperature;BMP_pressure;BME280_temperature;BME280_humidity;BME280_pressure;Samples;Min_cycle;Max_cycle;Signal;HPM_P1;HPM_P2
2021/05/29 00:02:22;;;;;;;19.50;12.73;;;11.30;99.50;;;;;;5054511;28;20065;-73
2021/05/29 00:04:48;;;;;;;20.83;13.75;;;11.40;99.40;;;;;;5054575;28;20044;-74
2021/05/29 00:07:14;;;;;;;19.42;12.98;;;11.40;99.30;;;;;;5054680;28;20112;-74
2021/05/29 00:09:41;;;;;;;23.10;11.93;;;11.40;99.40;;;;;;5054369;28;20041;-74
2021/05/29 00:12:09;;;;;;;20.50;12.95;;;11.50;99.30;;;;;;5054417;28;20036;-74
2021/05/29 00:14:37;;;;;;;20.35;12.93;;;11.50;99.40;;;;;;5054172;28;20047;-74
2021/05/29 00:17:03;;;;;;;23.27;14.20;;;11.40;99.50;;;;;;5054282;28;20163;-74
2021/05/29 00:19:30;;;;;;;24.73;14.45;;;11.50;99.50;;;;;;5053985;28;20037;-74
2021/05/29 00:21:56;;;;;;;21.08;15.05;;;11.50;99.50;;;;;;5054126;28;20043;-74
2021/05/29 00:24:21;;;;;;;20.95;13.38;;;11.50;99.40;;;;;;5054346;28;20116;-74
2021/05/29 00:26:47;;;;;;;23.38;14.38;;;11.50;99.40;;;;;;5054389;28;20032;-74
2021/05/29 00:29:13;;;;;;;20.20;13.55;;;11.50;99.60;;;;;;5053818;28;20041;-74
2021/05/29 00:31:38;;;;;;;22.80;14.55;;;11.50;99.70;;;;;;5054515;28;20032;-74
2021/05/29 00:34:04;;;;;;;23.27;14.02;;;11.60;99.70;;;;;;5054101;28;20488;-74
2021/05/29 00:36:30;;;;;;;22.50;15.45;;;11.60;99.70;;;;;;5053838;28;20037;-74
2021/05/29 00:38:56;;;;;;;22.92;14.88;;;11.60;99.60;;;;;;5053495;28;20462;-74
2021/05/29 00:41:22;;;;;;;24.58;14.73;;;11.60;99.60;;;;;;5053687;28;20044;-74
2021/05/29 00:43:47;;;;;;;27.80;15.68;;;11.70;99.60;;;;;;5053830;28;20429;-74
2021/05/29 00:46:14;;;;;;;23.17;14.02;;;11.70;99.60;;;;;;5053713;28;20491;-74
2021/05/29 00:48:40;;;;;;;23.35;14.73;;;11.70;99.60;;;;;;5053450;28;20408;-74
2021/05/29 00:51:07;;;;;;;22.73;14.52;;;11.70;99.50;;;;;;5054215;28;20028;-74
2021/05/29 00:53:34;;;;;;;23.33;13.85;;;11.70;99.50;;;;;;5053725;28;20071;-74
2021/05/29 00:56:03;;;;;;;24.98;12.82;;;11.70;99.50;;;;;;5053461;28;20036;-74
2021/05/29 00:58:29;;;;;;;18.70;12.25;;;11.80;99.40;;;;;;5053177;28;20041;-74
2021/05/29 01:00:56;;;;;;;19.88;13.82;;;11.80;99.40;;;;;;5053734;28;20111;-74
2021/05/29 01:03:22;;;;;;;18.52;12.93;;;11.80;99.50;;;;;;5053447;28;20397;-74
2021/05/29 01:05:48;;;;;;;21.85;13.43;;;11.80;99.70;;;;;;5053464;28;20374;-74
2021/05/29 01:08:14;;;;;;;22.45;14.23;;;11.80;99.80;;;;;;5053359;28;20040;-73
2021/05/29 01:10:41;;;;;;;24.33;13.15;;;11.80;99.80;;;;;;5052954;28;20033;-74
2021/05/29 01:13:09;;;;;;;20.70;14.38;;;11.70;99.90;;;;;;5053718;28;20037;-74
2021/05/29 01:15:42;;;;;;;18.17;13.05;;;11.80;99.90;;;;;;5053182;28;20476;-74
2021/05/29 01:18:11;;;;;;;23.63;13.45;;;11.80;99.90;;;;;;5053336;28;20470;-74
2021/05/29 01:20:37;;;;;;;21.17;13.60;;;11.80;99.80;;;;;;5053003;28;20033;-73
2021/05/29 01:23:03;;;;;;;23.30;13.43;;;11.80;99.90;;;;;;5053402;28;20033;-74
2021/05/29 01:25:35;;;;;;;21.85;12.95;;;11.80;99.90;;;;;;5053277;28;20132;-74
2021/05/29 01:28:24;;;;;;;20.08;12.98;;;11.80;99.90;;;;;;5053423;28;20076;-74
2021/05/29 01:30:58;;;;;;;25.52;14.40;;;11.80;99.90;;;;;;5052873;28;20485;-74
2021/05/29 01:33:26;;;;;;;22.98;13.95;;;11.70;99.90;;;;;;5053613;28;20037;-73
2021/05/29 01:35:57;;;;;;;26.42;14.75;;;11.80;99.90;;;;;;5052971;28;20036;-74
2021/05/29 01:38:23;;;;;;;20.00;13.65;;;11.70;99.90;;;;;;5053010;28;20048;-74
2021/05/29 01:40:50;;;;;;;21.27;15.23;;;11.70;99.90;;;;;;5052702;28;20144;-74
2021/05/29 01:43:16;;;;;;;22.55;14.10;;;11.70;99.90;;;;;;5053251;28;20036;-74
2021/05/29 01:45:43;;;;;;;26.10;15.02;;;11.70;99.90;;;;;;5053156;28;20045;-74
2021/05/29 01:48:10;;;;;;;18.92;13.00;;;11.70;99.90;;;;;;5053275;28;20377;-74
2021/05/29 01:50:45;;;;;;;24.83;13.43;;;11.70;99.90;;;;;;5052970;28;20029;-74
2021/05/29 01:53:19;;;;;;;19.90;12.63;;;11.60;99.90;;;;;;5052908;28;20041;-74
2021/05/29 01:55:47;;;;;;;22.38;13.13;;;11.60;99.90;;;;;;5052729;28;20135;-74
2021/05/29 01:58:13;;;;;;;20.05;12.85;;;11.70;99.90;;;;;;5052810;28;20041;-74
2021/05/29 02:00:39;;;;;;;23.17;13.43;;;11.70;99.90;;;;;;5052783;28;20461;-74
2021/05/29 02:03:05;;;;;;;24.83;14.15;;;11.70;99.90;;;;;;5053404;28;20037;-74
2021/05/29 02:05:32;;;;;;;20.88;13.50;;;11.70;99.90;;;;;;5052912;28;20044;-74
2021/05/29 02:08:02;;;;;;;18.08;13.23;;;11.70;99.90;;;;;;5053344;28;20469;-74
2021/05/29 02:10:30;;;;;;;22.80;13.98;;;11.70;99.90;;;;;;5052487;28;20041;-74
2021/05/29 02:12:58;;;;;;;18.23;13.00;;;11.70;99.90;;;;;;5052865;28;20040;-74
2021/05/29 02:15:29;;;;;;;18.17;12.63;;;11.80;99.90;;;;;;5053264;28;20116;-74
2021/05/29 02:17:57;;;;;;;20.98;13.93;;;11.70;99.90;;;;;;5052707;28;20033;-74
2021/05/29 02:20:49;;;;;;;20.17;12.77;;;11.70;99.90;;;;;;5052242;28;20036;-74
2021/05/29 02:23:21;;;;;;;23.38;12.80;;;11.70;99.90;;;;;;5052782;28;20076;-74
2021/05/29 02:25:48;;;;;;;21.08;13.05;;;11.70;99.90;;;;;;5053011;28;20041;-74
2021/05/29 02:28:15;;;;;;;25.75;14.95;;;11.70;99.90;;;;;;5053058;28;20106;-74
2021/05/29 02:30:41;;;;;;;23.23;13.63;;;11.70;99.90;;;;;;5054876;28;20045;-74
2021/05/29 02:33:08;;;;;;;20.13;12.73;;;11.70;99.90;;;;;;5056316;28;20076;-74
2021/05/29 02:35:36;;;;;;;19.55;13.52;;;11.70;99.90;;;;;;5056287;28;20045;-74
2021/05/29 02:38:21;;;;;;;21.17;12.77;;;11.70;99.90;;;;;;5042056;28;20045;-75
2021/05/29 02:40:47;;;;;;;19.83;11.80;;;11.70;99.90;;;;;;5055969;28;20033;-74
2021/05/29 02:43:13;;;;;;;18.33;11.80;;;11.70;99.90;;;;;;5056688;28;20445;-74
2021/05/29 02:45:39;;;;;;;21.95;13.13;;;11.80;99.90;;;;;;5056427;28;20045;-74
2021/05/29 02:48:09;;;;;;;19.17;12.55;;;11.70;99.90;;;;;;5038509;28;20134;-74
2021/05/29 02:50:35;;;;;;;17.70;12.88;;;11.70;99.90;;;;;;5055887;28;20111;-74
2021/05/29 02:53:02;;;;;;;21.80;13.90;;;11.70;99.90;;;;;;5055994;28;20516;-74
2021/05/29 02:55:28;;;;;;;19.80;12.85;;;11.70;99.90;;;;;;5056270;28;20068;-74
2021/05/29 02:57:56;;;;;;;21.80;12.77;;;11.70;99.90;;;;;;5055939;28;20068;-74
2021/05/29 03:00:24;;;;;;;21.05;13.25;;;11.80;99.90;;;;;;5055499;28;20041;-74
2021/05/29 03:02:50;;;;;;;20.05;12.68;;;11.70;99.90;;;;;;5055803;28;20029;-74
2021/05/29 03:05:16;;;;;;;19.98;13.05;;;11.80;99.90;;;;;;5055597;28;20125;-74
2021/05/29 03:07:42;;;;;;;21.65;13.45;;;11.70;99.90;;;;;;5055963;28;20037;-73
2021/05/29 03:10:09;;;;;;;21.83;13.77;;;11.70;99.90;;;;;;5037821;28;20041;-74
2021/05/29 03:12:38;;;;;;;15.63;12.18;;;11.70;99.90;;;;;;5055535;28;20400;-73
2021/05/29 03:15:10;;;;;;;18.70;12.40;;;11.80;99.90;;;;;;5037624;28;20048;-74
2021/05/29 03:17:36;;;;;;;18.58;13.00;;;11.80;99.90;;;;;;5055505;28;20041;-74
2021/05/29 03:20:04;;;;;;;20.05;13.82;;;11.70;99.90;;;;;;5054954;28;20037;-74
2021/05/29 03:22:31;;;;;;;20.83;13.10;;;11.70;99.90;;;;;;5055864;28;20161;-74
2021/05/29 03:24:57;;;;;;;20.40;13.82;;;11.70;99.90;;;;;;5055929;28;20129;-74
2021/05/29 03:27:23;;;;;;;25.85;13.60;;;11.70;99.90;;;;;;5055166;28;20132;-74
2021/05/29 03:29:48;;;;;;;23.20;13.98;;;11.70;99.90;;;;;;5054895;28;20036;-74
2021/05/29 03:32:14;;;;;;;19.63;13.68;;;11.60;99.90;;;;;;5055494;28;20043;-74
2021/05/29 03:34:41;;;;;;;22.63;13.18;;;11.70;99.90;;;;;;5055532;28;20047;-73
2021/05/29 03:37:08;;;;;;;23.30;13.73;;;11.60;99.90;;;;;;5055820;28;20033;-74
2021/05/29 03:39:34;;;;;;;23.48;13.57;;;11.50;99.90;;;;;;5054585;28;20036;-74
2021/05/29 03:42:00;;;;;;;22.70;12.55;;;11.60;99.90;;;;;;5054414;28;20393;-74
2021/05/29 03:44:26;;;;;;;26.25;15.00;;;11.70;99.90;;;;;;5054978;28;20033;-74
2021/05/29 03:46:52;;;;;;;19.38;13.80;;;11.60;99.90;;;;;;5054943;28;20116;-74
2021/05/29 03:49:17;;;;;;;22.08;12.68;;;11.60;99.90;;;;;;5054839;28;20112;-74
2021/05/29 03:51:44;;;;;;;20.00;12.88;;;11.70;99.90;;;;;;5054851;28;20397;-73
2021/05/29 03:54:09;;;;;;;18.30;12.48;;;11.70;99.90;;;;;;5055330;28;20052;-73
2021/05/29 03:56:35;;;;;;;18.33;13.32;;;11.70;99.90;;;;;;5055239;28;20499;-73
2021/05/29 03:59:03;;;;;;;20.08;13.15;;;11.70;99.90;;;;;;5054398;28;20037;-73
2021/05/29 04:01:29;;;;;;;20.25;12.90;;;11.70;99.90;;;;;;5054887;28;20036;-74
2021/05/29 04:03:55;;;;;;;21.38;13.35;;;11.60;99.90;;;;;;5054771;28;20155;-73
2021/05/29 04:06:21;;;;;;;19.58;13.13;;;11.60;99.90;;;;;;5055057;28;20075;-73
2021/05/29 04:08:46;;;;;;;19.70;13.77;;;11.60;99.90;;;;;;5054709;28;20037;-73
2021/05/29 04:11:12;;;;;;;17.90;12.10;;;11.60;99.90;;;;;;5054528;28;20067;-74
2021/05/29 04:13:38;;;;;;;24.33;12.25;;;11.70;99.90;;;;;;5054565;28;20059;-73
2021/05/29 04:16:03;;;;;;;23.00;14.35;;;11.70;99.90;;;;;;5054664;28;20040;-74
2021/05/29 04:18:29;;;;;;;26.00;13.93;;;11.70;99.90;;;;;;5054068;28;20119;-74
2021/05/29 04:20:55;;;;;;;22.05;13.43;;;11.70;99.90;;;;;;5054717;28;20119;-73
2021/05/29 04:23:20;;;;;;;23.05;14.40;;;11.70;99.90;;;;;;5054902;28;20087;-73
2021/05/29 04:25:46;;;;;;;20.75;13.15;;;11.70;99.90;;;;;;5054160;28;20055;-72
2021/05/29 04:28:12;;;;;;;20.05;13.88;;;11.70;99.90;;;;;;5054227;28;20033;-74
2021/05/29 04:30:38;;;;;;;23.55;13.55;;;11.70;99.90;;;;;;5053757;28;20044;-73
2021/05/29 04:33:05;;;;;;;22.25;13.90;;;11.70;99.90;;;;;;5054385;28;20419;-73
2021/05/29 04:35:30;;;;;;;23.50;14.98;;;11.60;99.90;;;;;;5053869;28;20444;-73
2021/05/29 04:37:56;;;;;;;21.58;13.52;;;11.70;99.90;;;;;;5054524;28;20094;-74
2021/05/29 04:40:24;;;;;;;24.50;13.95;;;11.70;99.90;;;;;;5053551;28;20468;-74
2021/05/29 04:42:50;;;;;;;20.65;13.20;;;11.70;99.90;;;;;;5054003;28;20086;-73
2021/05/29 04:45:17;;;;;;;20.60;13.57;;;11.80;99.90;;;;;;5054410;28;20420;-73
2021/05/29 04:47:43;;;;;;;20.50;13.25;;;11.70;99.90;;;;;;5053849;28;20037;-73
2021/05/29 04:50:11;;;;;;;19.10;12.45;;;11.70;99.90;;;;;;5053433;28;20041;-73
2021/05/29 04:52:37;;;;;;;22.27;13.30;;;11.80;99.90;;;;;;5053396;28;20455;-73
2021/05/29 04:55:05;;;;;;;20.45;13.15;;;11.80;99.90;;;;;;5053832;28;20037;-72
2021/05/29 04:57:32;;;;;;;19.42;10.77;;;11.90;99.90;;;;;;5053812;28;20440;-73
2021/05/29 04:59:58;;;;;;;20.88;12.52;;;11.80;99.90;;;;;;5053690;28;20033;-73
2021/05/29 05:02:23;;;;;;;21.88;13.30;;;11.90;99.90;;;;;;5053558;28;20042;-73
2021/05/29 05:04:49;;;;;;;22.67;12.95;;;11.90;99.90;;;;;;5053395;28;20044;-73
2021/05/29 05:07:15;;;;;;;24.00;13.57;;;11.90;99.90;;;;;;5053744;28;20037;-73
2021/05/29 05:09:41;;;;;;;20.90;13.50;;;11.90;99.90;;;;;;5052984;28;20401;-73
2021/05/29 05:12:07;;;;;;;25.27;14.10;;;11.80;99.90;;;;;;5053790;28;20033;-73
2021/05/29 05:14:33;;;;;;;21.67;13.50;;;11.80;99.90;;;;;;5053756;28;20037;-73
2021/05/29 05:16:59;;;;;;;19.27;13.27;;;11.80;99.90;;;;;;5053466;28;20064;-73
2021/05/29 05:19:24;;;;;;;23.88;14.18;;;11.80;99.90;;;;;;5053094;28;20374;-73
2021/05/29 05:21:50;;;;;;;25.33;12.98;;;11.90;99.90;;;;;;5053912;28;20098;-74
2021/05/29 05:24:16;;;;;;;18.63;12.68;;;11.70;99.90;;;;;;5035452;28;20143;-74
2021/05/29 05:26:41;;;;;;;20.63;13.23;;;11.80;99.90;;;;;;5035428;28;20045;-72
2021/05/29 05:29:07;;;;;;;23.85;12.48;;;11.90;99.90;;;;;;5052784;28;20116;-72
2021/05/29 05:31:34;;;;;;;20.10;12.88;;;11.90;99.90;;;;;;5053073;28;20028;-73
2021/05/29 05:34:07;;;;;;;21.45;12.50;;;11.80;99.90;;;;;;5053256;28;20504;-73
2021/05/29 05:36:32;;;;;;;20.38;13.20;;;11.90;99.90;;;;;;5053326;28;20392;-73
2021/05/29 05:38:58;;;;;;;20.35;13.82;;;11.90;99.90;;;;;;5052489;28;20049;-73
2021/05/29 05:41:24;;;;;;;24.13;14.55;;;11.80;99.90;;;;;;5053235;28;20043;-73
2021/05/29 05:43:49;;;;;;;22.35;12.60;;;11.70;99.90;;;;;;5053147;28;20397;-73
2021/05/29 05:46:16;;;;;;;17.48;12.38;;;11.80;99.90;;;;;;5053184;28;20485;-73
2021/05/29 05:48:42;;;;;;;22.95;14.45;;;11.80;99.90;;;;;;5052895;28;20199;-73
2021/05/29 05:51:08;;;;;;;19.83;12.77;;;11.90;99.90;;;;;;5053561;28;20116;-73
2021/05/29 05:53:34;;;;;;;17.50;12.55;;;11.90;99.90;;;;;;5053286;28;20055;-73
2021/05/29 05:56:03;;;;;;;17.42;12.38;;;12.00;99.90;;;;;;5053076;28;20045;-73
2021/05/29 05:58:31;;;;;;;17.85;11.77;;;12.10;99.90;;;;;;5052993;28;20037;-74
2021/05/29 06:00:58;;;;;;;19.23;12.63;;;12.00;99.90;;;;;;5053441;28;20043;-73
2021/05/29 06:03:24;;;;;;;19.08;11.63;;;12.10;99.90;;;;;;5052889;28;20036;-73
2021/05/29 06:05:50;;;;;;;24.63;13.02;;;12.20;99.60;;;;;;5056056;28;20056;-73
2021/05/29 06:08:16;;;;;;;19.45;11.73;;;12.30;99.60;;;;;;5057316;28;20419;-73
2021/05/29 06:10:42;;;;;;;16.15;10.23;;;12.30;99.30;;;;;;5056361;28;20538;-73
2021/05/29 06:13:13;;;;;;;17.55;11.48;;;12.30;99.20;;;;;;5056547;28;20041;-73
2021/05/29 06:21:08;;;;;;;16.90;11.40;;;12.40;98.50;;;;;;5056950;28;20079;-73
2021/05/29 06:23:34;;;;;;;17.10;10.80;;;12.40;98.40;;;;;;5056932;28;20061;-73
2021/05/29 06:25:59;;;;;;;19.95;10.85;;;12.50;98.40;;;;;;5056724;28;20052;-73
2021/05/29 06:28:25;;;;;;;16.05;9.00;;;12.40;98.30;;;;;;5056945;28;20041;-73
2021/05/29 06:30:51;;;;;;;13.60;8.20;;;12.50;98.30;;;;;;5055977;28;20047;-73
2021/05/29 06:33:17;;;;;;;10.27;8.07;;;12.30;97.10;;;;;;5056763;28;20041;-73
2021/05/29 06:35:42;;;;;;;13.90;7.60;;;12.30;97.10;;;;;;5056514;28;20443;-73
2021/05/29 06:38:08;;;;;;;11.88;7.93;;;12.40;96.50;;;;;;5056517;28;20033;-73
2021/05/29 06:40:34;;;;;;;9.30;6.30;;;12.50;96.40;;;;;;5055731;28;20041;-73
2021/05/29 06:43:00;;;;;;;12.85;6.57;;;12.50;96.30;;;;;;5056055;28;20394;-73
2021/05/29 06:45:26;;;;;;;12.45;6.70;;;12.60;96.10;;;;;;5056806;28;20048;-73
2021/05/29 06:47:52;;;;;;;8.80;5.93;;;12.70;96.00;;;;;;5056181;28;20040;-73
2021/05/29 06:50:17;;;;;;;9.52;6.13;;;12.60;95.50;;;;;;5055614;28;20554;-73
2021/05/29 06:52:47;;;;;;;9.82;6.50;;;12.70;95.40;;;;;;5055857;28;20037;-73
2021/05/29 07:00:42;;;;;;;10.85;7.47;;;13.20;96.10;;;;;;5055549;28;20156;-73
2021/05/29 07:03:08;;;;;;;12.90;7.70;;;13.20;95.40;;;;;;5055767;28;20078;-73
2021/05/29 07:05:34;;;;;;;8.68;6.45;;;13.10;94.90;;;;;;5055645;28;20548;-73
2021/05/29 07:08:00;;;;;;;14.57;8.13;;;13.10;94.40;;;;;;5056310;28;20469;-73
2021/05/29 07:10:25;;;;;;;15.50;7.70;;;13.10;94.30;;;;;;5055314;28;20068;-73
2021/05/29 07:12:51;;;;;;;13.23;7.13;;;13.00;94.30;;;;;;5055396;28;20065;-73
2021/05/29 07:15:17;;;;;;;10.20;6.15;;;13.10;94.20;;;;;;5055593;28;20073;-73
2021/05/29 07:17:45;;;;;;;13.38;6.72;;;13.10;94.00;;;;;;5054757;28;20586;-73
2021/05/29 07:20:12;;;;;;;11.10;7.75;;;13.30;93.80;;;;;;5054962;28;20208;-73
2021/05/29 07:22:37;;;;;;;9.82;6.38;;;13.60;93.50;;;;;;5055345;28;20043;-73
2021/05/29 07:25:07;;;;;;;10.50;6.10;;;14.00;93.30;;;;;;5055388;28;20123;-73
2021/05/29 07:27:34;;;;;;;10.10;6.35;;;14.10;92.10;;;;;;5055630;28;20071;-73
2021/05/29 07:30:06;;;;;;;9.57;6.47;;;14.40;91.40;;;;;;5055172;28;20033;-73
2021/05/29 07:32:32;;;;;;;10.68;6.28;;;14.50;92.10;;;;;;5055711;28;20469;-73
2021/05/29 07:34:58;;;;;;;10.93;6.55;;;14.40;92.00;;;;;;5055701;28;20465;-73
2021/05/29 07:37:24;;;;;;;12.45;7.43;;;14.60;92.00;;;;;;5055131;28;20077;-73
2021/05/29 07:39:49;;;;;;;13.93;7.85;;;14.60;91.90;;;;;;5054653;28;20116;-73
2021/05/29 07:42:15;;;;;;;12.27;7.70;;;14.50;92.30;;;;;;5055297;28;20040;-73
2021/05/29 07:44:41;;;;;;;10.80;6.45;;;14.60;92.70;;;;;;5055508;28;20045;-72
2021/05/29 07:47:06;;;;;;;10.20;6.10;;;14.40;91.40;;;;;;5055411;28;20095;-73
2021/05/29 07:49:32;;;;;;;11.75;6.65;;;14.40;91.30;;;;;;5054859;28;20037;-73
2021/05/29 07:51:58;;;;;;;13.27;6.47;;;14.00;90.90;;;;;;5037029;28;20469;-72
2021/05/29 07:54:24;;;;;;;10.93;7.13;;;14.30;91.30;;;;;;5054836;28;20044;-72
2021/05/29 07:56:51;;;;;;;11.10;6.10;;;14.40;91.60;;;;;;5054293;28;20398;-73
2021/05/29 07:59:18;;;;;;;11.02;6.47;;;14.50;91.80;;;;;;5054432;28;20535;-73
2021/05/29 08:01:44;;;;;;;10.63;6.80;;;14.30;91.80;;;;;;5054516;28;20033;-73
2021/05/29 08:04:12;;;;;;;12.27;6.28;;;14.10;91.80;;;;;;5055224;28;20433;-73
2021/05/29 08:06:38;;;;;;;8.63;5.60;;;14.20;91.60;;;;;;5054603;28;20045;-72
2021/05/29 08:09:06;;;;;;;8.10;5.22;;;14.30;91.20;;;;;;5054196;28;20433;-72
2021/05/29 08:11:35;;;;;;;7.45;5.43;;;14.90;90.30;;;;;;5036636;28;20495;-72
2021/05/29 08:14:00;;;;;;;9.00;5.93;;;15.60;88.60;;;;;;5054572;28;20037;-72
2021/05/29 08:16:26;;;;;;;9.35;5.07;;;15.90;89.30;;;;;;5054809;28;20040;-72
2021/05/29 08:18:53;;;;;;;10.60;5.60;;;15.50;88.30;;;;;;5053741;28;20571;-72
2021/05/29 08:21:21;;;;;;;8.93;5.32;;;15.60;88.00;;;;;;5054343;28;20503;-73
2021/05/29 08:23:47;;;;;;;8.88;5.47;;;15.40;87.50;;;;;;5054388;28;20044;-72
2021/05/29 08:26:13;;;;;;;11.25;6.20;;;15.00;87.60;;;;;;5054262;28;20037;-72
2021/05/29 08:28:39;;;;;;;8.85;6.18;;;15.10;90.50;;;;;;5053655;28;20032;-73
2021/05/29 08:31:05;;;;;;;8.63;5.75;;;14.70;90.80;;;;;;5053908;28;20044;-73
2021/05/29 08:33:31;;;;;;;10.73;5.78;;;14.50;91.10;;;;;;5053600;28;20219;-73
2021/05/29 08:35:57;;;;;;;7.75;5.10;;;14.50;91.70;;;;;;5053968;28;20108;-73
2021/05/29 08:38:23;;;;;;;8.50;5.28;;;14.60;91.90;;;;;;5048143;28;20497;-73
2021/05/29 08:40:48;;;;;;;11.75;6.30;;;14.30;91.60;;;;;;5033986;28;20480;-72
2021/05/29 08:43:14;;;;;;;11.18;5.80;;;14.40;92.10;;;;;;5034345;28;20045;-72
2021/05/29 08:45:40;;;;;;;9.60;5.25;;;14.30;91.50;;;;;;5034140;28;20056;-72
2021/05/29 08:48:06;;;;;;;9.38;5.82;;;14.40;91.60;;;;;;5034428;28;20586;-73
2021/05/29 08:50:33;;;;;;;9.30;5.00;;;14.60;91.70;;;;;;5033323;28;20041;-73
2021/05/29 08:52:59;;;;;;;9.75;5.63;;;14.50;91.40;;;;;;5033438;28;20136;-73
2021/05/29 08:55:24;;;;;;;10.90;5.20;;;14.60;91.30;;;;;;5032262;28;20547;-73
2021/05/29 08:57:51;;;;;;;10.13;4.20;;;14.70;90.70;;;;;;5034156;28;20406;-73
2021/05/29 09:00:24;;;;;;;8.63;5.00;;;14.80;89.80;;;;;;5033271;28;20037;-73
2021/05/29 09:03:08;;;;;;;7.50;4.95;;;14.40;88.70;;;;;;5033658;28;20116;-73
2021/05/29 09:05:54;;;;;;;8.93;5.05;;;14.40;90.00;;;;;;5033561;28;20122;-73
2021/05/29 09:08:24;;;;;;;7.80;4.28;;;14.90;87.80;;;;;;5033838;28;20068;-73
2021/05/29 09:10:53;;;;;;;7.00;4.32;;;15.10;88.10;;;;;;5033045;28;20069;-73
2021/05/29 09:13:25;;;;;;;9.05;4.85;;;15.60;88.70;;;;;;5033481;28;20523;-73
2021/05/29 09:15:59;;;;;;;8.85;5.63;;;15.70;88.20;;;;;;5033586;28;20045;-73
2021/05/29 09:18:36;;;;;;;9.45;6.22;;;15.40;88.10;;;;;;5033837;28;20088;-73
2021/05/29 09:21:46;;;;;;;9.65;6.03;;;15.50;90.80;;;;;;5033542;28;20052;-73
2021/05/29 09:24:18;;;;;;;9.13;5.38;;;15.40;90.30;;;;;;5028659;28;20168;-73
2021/05/29 09:26:54;;;;;;;10.27;5.50;;;15.30;90.30;;;;;;5033502;28;20051;-73
2021/05/29 09:29:30;;;;;;;10.55;5.35;;;15.20;89.90;;;;;;5032998;28;20121;-73
2021/05/29 09:32:07;;;;;;;10.32;6.10;;;15.30;90.60;;;;;;5033968;28;20073;-73
2021/05/29 09:34:46;;;;;;;12.38;6.05;;;15.20;90.20;;;;;;5033356;28;20041;-73
2021/05/29 09:37:15;;;;;;;8.73;5.57;;;15.00;90.20;;;;;;5033273;28;20104;-73
2021/05/29 09:39:43;;;;;;;8.25;5.68;;;15.00;90.80;;;;;;5035828;28;20045;-73
2021/05/29 09:42:11;;;;;;;9.77;5.55;;;15.10;91.20;;;;;;5040155;28;20044;-73
2021/05/29 09:44:37;;;;;;;11.27;5.30;;;14.80;90.60;;;;;;5040536;28;20099;-73
2021/05/29 09:47:07;;;;;;;10.13;6.05;;;14.70;90.50;;;;;;5039976;28;20038;-73
2021/05/29 09:49:49;;;;;;;9.05;4.90;;;14.50;90.30;;;;;;5040006;28;20041;-73
2021/05/29 09:52:36;;;;;;;7.13;4.82;;;14.80;90.00;;;;;;5021929;28;20083;-73
2021/05/29 09:55:05;;;;;;;14.48;6.38;;;14.80;90.50;;;;;;5039526;28;20388;-73
2021/05/29 09:57:31;;;;;;;9.70;5.78;;;14.60;89.50;;;;;;5039911;28;20073;-73
2021/05/29 10:00:06;;;;;;;12.13;4.88;;;14.60;90.10;;;;;;5039400;28;20383;-73
2021/05/29 10:02:32;;;;;;;7.90;4.88;;;14.50;88.50;;;;;;5039670;28;20041;-73
2021/05/29 10:04:58;;;;;;;10.52;5.05;;;14.70;89.20;;;;;;5039983;28;20045;-73
2021/05/29 10:07:37;;;;;;;7.88;5.50;;;14.90;89.20;;;;;;5039917;28;20144;-73
2021/05/29 10:10:03;;;;;;;9.75;5.22;;;15.00;87.70;;;;;;5039319;28;20103;-73
2021/05/29 10:12:28;;;;;;;9.23;6.28;;;15.10;87.80;;;;;;5039759;28;20481;-73
2021/05/29 10:14:54;;;;;;;8.73;5.85;;;14.90;89.80;;;;;;5039480;28;20045;-73
2021/05/29 10:17:21;;;;;;;10.60;6.40;;;14.90;90.50;;;;;;5039405;28;20033;-73
2021/05/29 10:19:48;;;;;;;9.93;5.80;;;14.60;89.60;;;;;;5039224;28;20386;-73
2021/05/29 10:22:15;;;;;;;9.68;6.10;;;14.70;89.50;;;;;;5039343;28;20033;-73
2021/05/29 10:24:44;;;;;;;9.18;6.05;;;14.90;88.80;;;;;;5039346;28;20054;-73
2021/05/29 10:27:18;;;;;;;9.50;5.60;;;14.90;89.50;;;;;;5039625;28;20044;-73
2021/05/29 10:29:44;;;;;;;7.65;5.10;;;14.80;89.80;;;;;;5038931;28;20037;-73
2021/05/29 10:32:15;;;;;;;10.25;6.65;;;15.00;90.70;;;;;;5039935;28;20037;-73
2021/05/29 10:34:52;;;;;;;10.93;7.70;;;15.00;90.10;;;;;;5039196;28;20061;-73
2021/05/29 10:37:43;;;;;;;11.05;7.47;;;15.00;90.10;;;;;;5039343;28;20044;-73
2021/05/29 10:40:25;;;;;;;8.93;6.35;;;15.10;89.10;;;;;;5027491;28;20056;-73
2021/05/29 10:43:21;;;;;;;8.45;6.45;;;15.10;89.40;;;;;;5039964;28;20061;-73
2021/05/29 10:45:52;;;;;;;8.15;5.90;;;15.20;89.20;;;;;;5018805;28;20053;-73
2021/05/29 10:48:23;;;;;;;9.50;5.43;;;14.90;89.40;;;;;;5039351;28;20034;-73
2021/05/29 10:51:09;;;;;;;9.98;6.47;;;15.00;90.40;;;;;;5037921;28;20037;-73
2021/05/29 10:53:36;;;;;;;9.35;5.15;;;15.10;90.00;;;;;;5036463;28;20037;-73
2021/05/29 10:56:26;;;;;;;8.30;6.25;;;15.20;90.70;;;;;;5035885;28;20405;-73
2021/05/29 10:59:09;;;;;;;10.20;5.95;;;14.60;89.70;;;;;;5023947;28;20481;-73
2021/05/29 11:01:36;;;;;;;9.13;5.88;;;14.60;90.60;;;;;;5036247;28;20049;-73
2021/05/29 11:04:23;;;;;;;8.85;5.72;;;14.70;91.10;;;;;;5036037;28;20060;-73
2021/05/29 11:06:55;;;;;;;12.07;6.30;;;14.30;90.10;;;;;;5036237;28;20047;-73
2021/05/29 11:09:29;;;;;;;9.88;6.25;;;14.40;91.10;;;;;;5035671;28;20088;-73
2021/05/29 11:11:59;;;;;;;9.50;5.88;;;14.50;91.00;;;;;;5035931;28;20029;-72
2021/05/29 11:14:30;;;;;;;8.63;5.85;;;14.70;91.60;;;;;;5035609;28;20068;-72
2021/05/29 11:16:59;;;;;;;8.75;5.38;;;14.80;91.40;;;;;;5036085;28;20038;-73
2021/05/29 11:19:33;;;;;;;8.48;5.55;;;14.90;91.30;;;;;;5035218;28;20037;-73
2021/05/29 11:22:04;;;;;;;9.63;6.47;;;14.90;91.40;;;;;;5036169;28;20095;-73
2021/05/29 11:24:33;;;;;;;6.75;5.43;;;15.00;90.50;;;;;;5036113;28;20445;-73
2021/05/29 11:26:58;;;;;;;8.93;6.05;;;15.00;90.30;;;;;;5035579;28;20480;-73
2021/05/29 11:29:24;;;;;;;10.02;6.35;;;14.90;90.30;;;;;;5034842;28;20073;-73
2021/05/29 11:31:51;;;;;;;7.65;5.13;;;15.20;90.10;;;;;;5035568;28;20033;-73
2021/05/29 11:34:16;;;;;;;8.43;6.03;;;15.40;89.50;;;;;;5035174;28;20115;-73
2021/05/29 11:36:43;;;;;;;8.30;6.10;;;15.30;89.00;;;;;;5035581;28;20065;-73
2021/05/29 11:39:14;;;;;;;6.63;5.25;;;14.90;90.50;;;;;;5035164;28;20042;-73
2021/05/29 11:41:40;;;;;;;7.40;5.40;;;15.10;89.90;;;;;;5034990;28;20116;-73
2021/05/29 11:44:23;;;;;;;11.07;6.13;;;15.20;89.50;;;;;;5035149;28;20088;-73
2021/05/29 11:46:50;;;;;;;7.90;5.18;;;15.00;89.80;;;;;;5035678;28;20037;-73
2021/05/29 11:49:16;;;;;;;11.88;7.07;;;15.00;90.00;;;;;;5034540;28;20540;-73
2021/05/29 11:51:44;;;;;;;9.20;5.47;;;14.60;90.10;;;;;;5034839;28;20385;-73
2021/05/29 11:54:11;;;;;;;7.38;5.60;;;14.70;90.40;;;;;;5035285;28;20462;-73
2021/05/29 11:56:40;;;;;;;7.75;6.47;;;14.60;90.30;;;;;;5034857;28;20084;-73
2021/05/29 11:59:08;;;;;;;10.50;7.80;;;14.40;90.40;;;;;;5034531;28;20382;-73
2021/05/29 12:01:47;;;;;;;10.27;6.90;;;14.20;91.00;;;;;;5034579;28;20037;-73
2021/05/29 12:04:18;;;;;;;11.88;8.20;;;14.20;91.10;;;;;;5034466;28;20041;-73
2021/05/29 12:06:59;;;;;;;10.55;7.90;;;14.20;90.90;;;;;;5035202;28;20041;-72
2021/05/29 12:09:27;;;;;;;10.15;6.85;;;14.20;91.30;;;;;;5034319;28;20037;-72
2021/05/29 12:12:01;;;;;;;10.80;7.63;;;14.70;91.50;;;;;;5034070;28;20121;-73
2021/05/29 12:14:34;;;;;;;7.32;6.43;;;14.80;91.10;;;;;;5034294;28;20040;-73
2021/05/29 12:17:08;;;;;;;10.35;6.45;;;15.00;90.80;;;;;;5034298;28;20401;-73
2021/05/29 12:19:51;;;;;;;7.38;5.68;;;15.40;90.30;;;;;;5034334;28;20043;-73
2021/05/29 12:22:21;;;;;;;8.23;6.43;;;15.30;89.50;;;;;;5034728;28;20041;-75
2021/05/29 12:25:10;;;;;;;11.43;7.50;;;15.00;90.00;;;;;;5034254;28;20048;-74
2021/05/29 12:27:44;;;;;;;10.40;6.82;;;15.10;89.10;;;;;;5034510;28;20116;-74
2021/05/29 12:30:13;;;;;;;9.02;6.65;;;15.10;89.40;;;;;;5033818;28;20379;-74
2021/05/29 12:32:44;;;;;;;9.88;6.22;;;15.40;90.00;;;;;;5034754;28;20038;-73
2021/05/29 12:35:26;;;;;;;11.60;6.82;;;15.30;89.70;;;;;;5033737;28;20430;-75
2021/05/29 12:37:52;;;;;;;8.68;6.30;;;15.30;89.30;;;;;;5034609;28;20048;-74
2021/05/29 12:40:17;;;;;;;10.25;7.35;;;15.30;90.20;;;;;;5033631;28;20034;-74
2021/05/29 12:42:49;;;;;;;17.10;7.70;;;14.60;89.60;;;;;;5033954;28;20535;-73
2021/05/29 12:45:17;;;;;;;10.02;6.57;;;14.80;89.00;;;;;;5034497;28;20045;-74
2021/05/29 12:47:58;;;;;;;8.73;6.50;;;14.70;90.30;;;;;;5033878;28;20076;-74
2021/05/29 12:50:32;;;;;;;12.13;6.47;;;14.80;90.10;;;;;;5033439;28;20037;-74
2021/05/29 12:53:24;;;;;;;15.85;7.80;;;14.60;90.20;;;;;;5034292;28;20068;-74
2021/05/29 12:56:07;;;;;;;8.10;6.80;;;15.00;90.00;;;;;;5029558;28;20100;-74